Time;durP1;ratioP1;P1;durP2;ratioP2;P2;SDS_P1;SDS_P2;PMS_P1;PMS_P2;Temp;Humidity;BMP_temperature;BMP_pressure;BME280_temperature;BME280_humidity;BME280_pressure;Samples;Min_cycle;Max_cycle;Signal;HPM_P1;HPM_P2
2023/04/07 00:00:59;;;;;;;90.70;46.80;;;;;;;;;;107540;1250;22712;-79
2023/04/07 00:03:26;;;;;;;87.00;45.10;;;;;;;;;;107440;1249;61101;-78
2023/04/07 00:05:52;;;;;;;80.10;43.40;;;;;;;;;;106696;1250;61344;-78
2023/04/07 00:08:19;;;;;;;94.70;47.80;;;;;;;;;;106695;1250;61238;-79
2023/04/07 00:10:45;;;;;;;90.30;48.50;;;;;;;;;;106751;1250;61142;-80
2023/04/07 00:13:12;;;;;;;91.10;49.50;;;;;;;;;;106933;1250;61232;-77
2023/04/07 00:15:38;;;;;;;80.60;44.80;;;;;;;;;;107583;1249;22605;-79
2023/04/07 00:18:05;;;;;;;87.70;47.50;;;;;;;;;;107408;1249;61232;-77
2023/04/07 00:20:31;;;;;;;87.80;46.10;;;;;;;;;;107040;1249;61241;-79
2023/04/07 00:22:57;;;;;;;82.00;43.90;;;;;;;;;;107539;1252;22505;-77
2023/04/07 00:25:24;;;;;;;66.10;37.40;;;;;;;;;;107577;1249;25296;-79
2023/04/07 00:27:50;;;;;;;64.40;34.20;;;;;;;;;;107521;1250;22525;-77
2023/04/07 00:30:16;;;;;;;77.20;37.50;;;;;;;;;;107550;1250;24272;-77
2023/04/07 00:32:43;;;;;;;58.70;31.20;;;;;;;;;;107581;1249;22535;-79
2023/04/07 00:35:09;;;;;;;49.60;27.80;;;;;;;;;;107583;1249;24197;-77
2023/04/07 00:37:36;;;;;;;44.20;26.40;;;;;;;;;;107534;1250;22514;-80
2023/04/07 00:40:03;;;;;;;49.30;29.00;;;;;;;;;;107574;1250;22529;-77
2023/04/07 00:42:29;;;;;;;57.00;31.20;;;;;;;;;;107542;1250;25354;-77
2023/04/07 00:44:55;;;;;;;66.40;36.90;;;;;;;;;;107608;1252;22461;-80
2023/04/07 00:47:22;;;;;;;63.10;35.30;;;;;;;;;;107616;1249;24871;-79
2023/04/07 00:49:48;;;;;;;65.10;36.30;;;;;;;;;;107687;1250;25352;-78
2023/04/07 00:52:15;;;;;;;67.10;37.40;;;;;;;;;;107636;1250;22516;-77
2023/04/07 00:54:42;;;;;;;87.80;47.90;;;;;;;;;;107626;1250;22539;-77
2023/04/07 00:57:08;;;;;;;79.90;45.70;;;;;;;;;;107544;1250;22564;-77
2023/04/07 00:59:35;;;;;;;92.00;48.50;;;;;;;;;;108766;1250;22236;-80
2023/04/07 01:02:17;;;;;;;80.20;43.20;;;;;;;;;;108700;1249;25281;-77
2023/04/07 01:04:48;;;;;;;88.10;46.20;;;;;;;;;;107679;1250;24477;-77
2023/04/07 01:07:16;;;;;;;94.80;51.30;;;;;;;;;;107672;1250;22516;-79
2023/04/07 01:09:46;;;;;;;81.50;46.90;;;;;;;;;;110279;1249;22450;-79
2023/04/07 01:12:24;;;;;;;86.20;47.80;;;;;;;;;;111007;1250;22292;-77
2023/04/07 01:14:52;;;;;;;74.00;42.40;;;;;;;;;;109040;1249;22602;-77
2023/04/07 01:17:18;;;;;;;79.80;44.80;;;;;;;;;;107578;1251;22537;-79
2023/04/07 01:19:52;;;;;;;91.80;51.00;;;;;;;;;;107630;1250;26456;-77
2023/04/07 01:22:21;;;;;;;83.20;43.60;;;;;;;;;;110994;1249;22360;-77
2023/04/07 01:24:56;;;;;;;81.00;44.60;;;;;;;;;;110987;1249;22325;-79
2023/04/07 01:27:41;;;;;;;68.60;37.10;;;;;;;;;;110977;1249;22272;-79
2023/04/07 01:30:09;;;;;;;63.60;38.50;;;;;;;;;;110753;1251;22289;-80
2023/04/07 01:32:35;;;;;;;63.20;38.00;;;;;;;;;;110769;1250;23086;-79
2023/04/07 01:35:02;;;;;;;65.60;34.70;;;;;;;;;;110761;1249;23091;-79
2023/04/07 01:37:29;;;;;;;61.20;34.80;;;;;;;;;;110741;1249;22313;-77
2023/04/07 01:39:56;;;;;;;52.50;30.80;;;;;;;;;;110768;1249;22502;-79
2023/04/07 01:42:22;;;;;;;59.10;34.30;;;;;;;;;;110764;1249;22651;-77
2023/04/07 01:44:49;;;;;;;62.50;36.80;;;;;;;;;;107609;1250;25506;-77
2023/04/07 01:47:16;;;;;;;65.50;36.30;;;;;;;;;;107579;1250;22533;-79
2023/04/07 01:49:42;;;;;;;64.90;39.60;;;;;;;;;;107556;1250;26355;-77
2023/04/07 01:52:09;;;;;;;67.10;41.90;;;;;;;;;;107586;1250;25714;-77
2023/04/07 01:54:35;;;;;;;76.90;45.50;;;;;;;;;;107628;1250;25191;-79
2023/04/07 01:57:02;;;;;;;71.10;41.70;;;;;;;;;;107535;1251;23074;-77
2023/04/07 01:59:29;;;;;;;75.70;44.10;;;;;;;;;;107404;1249;151721;-79
2023/04/07 02:01:55;;;;;;;77.60;44.00;;;;;;;;;;107562;1250;22550;-79
2023/04/07 02:04:28;;;;;;;68.30;38.90;;;;;;;;;;107538;1250;22514;-77
2023/04/07 02:06:55;;;;;;;64.00;35.80;;;;;;;;;;107580;1250;23198;-77
2023/04/07 02:09:21;;;;;;;67.60;35.40;;;;;;;;;;107622;1250;22520;-77
2023/04/07 02:11:48;;;;;;;69.10;36.90;;;;;;;;;;107560;1250;24217;-78
2023/04/07 02:14:16;;;;;;;63.80;33.90;;;;;;;;;;108299;1250;22157;-77
2023/04/07 02:16:42;;;;;;;65.00;38.60;;;;;;;;;;110856;1249;22516;-77
2023/04/07 02:19:09;;;;;;;67.00;35.70;;;;;;;;;;110920;1249;22211;-78
2023/04/07 02:21:35;;;;;;;61.40;34.00;;;;;;;;;;110906;1250;22408;-77
2023/04/07 02:24:05;;;;;;;57.30;30.30;;;;;;;;;;108610;1250;25378;-80
2023/04/07 02:26:34;;;;;;;49.20;29.10;;;;;;;;;;107595;1250;22532;-79
2023/04/07 02:29:02;;;;;;;44.50;26.00;;;;;;;;;;107556;1250;25351;-79
2023/04/07 02:31:28;;;;;;;56.30;28.30;;;;;;;;;;107596;1250;26363;-79
2023/04/07 02:33:54;;;;;;;38.20;21.60;;;;;;;;;;107593;1249;23166;-79
2023/04/07 02:36:21;;;;;;;38.50;22.10;;;;;;;;;;107513;1250;22534;-77
2023/04/07 02:38:47;;;;;;;45.30;26.10;;;;;;;;;;108994;1249;22366;-79
2023/04/07 02:41:13;;;;;;;39.50;23.20;;;;;;;;;;108347;1250;25376;-77
2023/04/07 02:43:40;;;;;;;40.90;22.90;;;;;;;;;;107552;1250;24330;-77
2023/04/07 02:46:06;;;;;;;37.10;22.20;;;;;;;;;;107538;1250;23262;-77
2023/04/07 02:48:33;;;;;;;36.70;22.70;;;;;;;;;;107546;1254;25404;-76
2023/04/07 02:50:59;;;;;;;43.10;23.10;;;;;;;;;;107557;1250;22536;-76
2023/04/07 02:53:25;;;;;;;42.60;24.30;;;;;;;;;;107958;1249;22878;-77
2023/04/07 02:55:52;;;;;;;42.30;23.90;;;;;;;;;;110827;1249;22827;-77
2023/04/07 02:58:18;;;;;;;33.90;19.00;;;;;;;;;;109233;1251;24083;-79
2023/04/07 03:00:46;;;;;;;36.30;19.90;;;;;;;;;;107523;1251;22619;-77
2023/04/07 03:03:13;;;;;;;35.80;21.00;;;;;;;;;;107661;1249;24334;-79
2023/04/07 03:05:39;;;;;;;41.10;23.10;;;;;;;;;;107691;1250;25306;-77
2023/04/07 03:08:05;;;;;;;38.00;22.10;;;;;;;;;;107711;1251;22542;-77
2023/04/07 03:10:31;;;;;;;35.50;21.10;;;;;;;;;;110253;1250;22299;-79
2023/04/07 03:12:58;;;;;;;36.30;18.40;;;;;;;;;;111035;1250;22226;-79
2023/04/07 03:15:24;;;;;;;37.20;19.30;;;;;;;;;;111016;1249;22350;-77
2023/04/07 03:17:51;;;;;;;33.50;18.40;;;;;;;;;;111014;1251;22333;-77
2023/04/07 03:20:17;;;;;;;32.70;18.50;;;;;;;;;;111032;1250;22232;-80
2023/04/07 03:22:46;;;;;;;39.60;18.80;;;;;;;;;;111025;1250;22459;-80
2023/04/07 03:25:12;;;;;;;35.80;18.60;;;;;;;;;;111011;1251;22188;-77
2023/04/07 03:27:39;;;;;;;36.40;20.70;;;;;;;;;;111028;1249;22524;-79
2023/04/07 03:30:06;;;;;;;36.30;18.20;;;;;;;;;;110862;1250;22494;-80
2023/04/07 03:32:32;;;;;;;33.80;18.80;;;;;;;;;;110913;1250;22380;-78
2023/04/07 03:34:58;;;;;;;33.10;18.00;;;;;;;;;;110831;1250;22163;-77
2023/04/07 03:37:25;;;;;;;37.60;21.90;;;;;;;;;;110882;1249;22365;-79
2023/04/07 03:39:51;;;;;;;39.80;22.30;;;;;;;;;;110871;1249;22351;-79
2023/04/07 03:42:17;;;;;;;36.80;19.80;;;;;;;;;;110851;1250;23038;-78
2023/04/07 03:44:44;;;;;;;38.80;20.70;;;;;;;;;;110895;1250;22177;-77
2023/04/07 03:47:11;;;;;;;41.40;21.70;;;;;;;;;;108449;1250;25221;-77
2023/04/07 03:49:37;;;;;;;44.80;23.90;;;;;;;;;;107558;1249;22527;-79
2023/04/07 03:52:04;;;;;;;40.20;22.20;;;;;;;;;;107578;1250;22683;-78
2023/04/07 03:54:30;;;;;;;40.80;22.70;;;;;;;;;;108657;1250;22414;-79
2023/04/07 03:56:57;;;;;;;40.30;20.60;;;;;;;;;;109569;1252;25396;-77
2023/04/07 03:59:24;;;;;;;40.40;21.40;;;;;;;;;;107512;1250;25205;-79
2023/04/07 04:01:50;;;;;;;41.30;22.70;;;;;;;;;;107569;1250;22511;-77
2023/04/07 04:04:17;;;;;;;43.10;24.30;;;;;;;;;;107549;1249;25288;-77
2023/04/07 04:06:43;;;;;;;44.50;25.80;;;;;;;;;;107577;1250;22525;-77
2023/04/07 04:09:09;;;;;;;54.20;28.60;;;;;;;;;;108164;1249;22891;-77
2023/04/07 04:11:36;;;;;;;61.70;34.00;;;;;;;;;;109253;1250;22529;-80
2023/04/07 04:14:02;;;;;;;79.70;41.40;;;;;;;;;;108049;1248;22264;-79
2023/04/07 04:16:30;;;;;;;73.50;39.80;;;;;;;;;;109462;1250;22892;-79
2023/04/07 04:18:56;;;;;;;72.00;39.70;;;;;;;;;;107505;1250;22541;-79
2023/04/07 04:21:23;;;;;;;62.80;32.30;;;;;;;;;;107557;1250;22520;-79
2023/04/07 04:23:49;;;;;;;69.90;36.30;;;;;;;;;;107634;1248;22505;-79
2023/04/07 04:26:15;;;;;;;61.20;31.30;;;;;;;;;;107591;1250;25249;-77
2023/04/07 04:28:42;;;;;;;55.80;30.10;;;;;;;;;;107553;1250;25480;-77
2023/04/07 04:31:08;;;;;;;52.60;29.70;;;;;;;;;;107502;1250;22546;-79
2023/04/07 04:33:35;;;;;;;62.50;31.50;;;;;;;;;;107503;1252;22517;-79
2023/04/07 04:36:01;;;;;;;66.70;34.10;;;;;;;;;;107522;1250;25400;-77
2023/04/07 04:38:27;;;;;;;68.60;34.70;;;;;;;;;;107689;1253;22551;-77
2023/04/07 04:40:54;;;;;;;73.00;39.30;;;;;;;;;;107573;1250;24276;-77
2023/04/07 04:43:20;;;;;;;64.90;35.30;;;;;;;;;;107593;1249;25376;-79
2023/04/07 04:45:46;;;;;;;60.40;33.40;;;;;;;;;;107576;1250;22523;-79
2023/04/07 04:48:13;;;;;;;60.80;34.30;;;;;;;;;;107526;1250;25316;-79
2023/04/07 04:50:40;;;;;;;71.20;39.00;;;;;;;;;;107563;1250;22522;-79
2023/04/07 04:53:07;;;;;;;71.70;37.10;;;;;;;;;;107569;1250;22558;-79
2023/04/07 04:55:33;;;;;;;57.60;29.70;;;;;;;;;;107601;1250;25391;-77
2023/04/07 04:58:00;;;;;;;63.70;32.30;;;;;;;;;;107575;1251;22523;-79
2023/04/07 05:00:27;;;;;;;59.60;32.40;;;;;;;;;;108842;1249;22337;-77
2023/04/07 05:02:54;;;;;;;91.90;50.50;;;;;;;;;;108285;1250;24258;-77
2023/04/07 05:05:20;;;;;;;109.20;58.00;;;;;;;;;;108208;1249;22994;-77
2023/04/07 05:07:47;;;;;;;51.70;27.40;;;;;;;;;;108114;1249;22564;-77
2023/04/07 05:10:13;;;;;;;48.20;27.20;;;;;;;;;;107649;1250;22726;-79
2023/04/07 05:12:40;;;;;;;52.40;28.40;;;;;;;;;;107684;1250;22528;-79
2023/04/07 05:15:06;;;;;;;49.50;26.90;;;;;;;;;;107687;1250;25332;-79
2023/04/07 05:17:33;;;;;;;48.30;27.50;;;;;;;;;;107588;1250;24279;-77
2023/04/07 05:19:59;;;;;;;45.80;29.50;;;;;;;;;;107611;1250;22523;-77
2023/04/07 05:22:25;;;;;;;48.40;25.10;;;;;;;;;;107542;1253;22511;-77
2023/04/07 05:24:52;;;;;;;47.90;27.50;;;;;;;;;;107643;1249;22997;-76
2023/04/07 05:27:18;;;;;;;51.90;27.40;;;;;;;;;;107531;1253;22528;-78
2023/04/07 05:29:44;;;;;;;57.80;27.60;;;;;;;;;;107598;1250;22532;-77
2023/04/07 05:32:11;;;;;;;67.30;36.50;;;;;;;;;;107569;1252;25413;-79
2023/04/07 05:34:37;;;;;;;63.00;33.00;;;;;;;;;;107717;1250;23324;-80
2023/04/07 05:37:04;;;;;;;59.20;32.30;;;;;;;;;;107549;1250;22643;-77
2023/04/07 05:39:30;;;;;;;64.00;32.20;;;;;;;;;;107540;1250;25378;-76
2023/04/07 05:41:56;;;;;;;50.40;29.10;;;;;;;;;;107558;1251;22522;-79
2023/04/07 05:44:23;;;;;;;63.30;35.30;;;;;;;;;;107545;1250;22523;-79
2023/04/07 05:46:49;;;;;;;71.50;41.70;;;;;;;;;;107484;1250;23129;-79
2023/04/07 05:49:17;;;;;;;87.10;47.40;;;;;;;;;;107490;1252;24285;-78
2023/04/07 05:51:43;;;;;;;108.40;56.60;;;;;;;;;;107555;1253;22516;-77
2023/04/07 05:54:09;;;;;;;94.10;53.10;;;;;;;;;;107519;1250;25380;-79
2023/04/07 05:56:36;;;;;;;72.40;39.00;;;;;;;;;;107557;1250;25382;-76
2023/04/07 05:59:02;;;;;;;60.80;34.70;;;;;;;;;;107572;1252;25380;-78
2023/04/07 06:01:29;;;;;;;59.00;32.10;;;;;;;;;;107824;1250;22618;-76
2023/04/07 06:03:57;;;;;;;70.40;37.30;;;;;;;;;;107557;1250;22548;-79
2023/04/07 06:06:23;;;;;;;61.30;33.90;;;;;;;;;;107522;1253;22639;-77
2023/04/07 06:08:50;;;;;;;53.00;32.00;;;;;;;;;;107457;1250;22593;-79
2023/04/07 06:11:16;;;;;;;57.80;31.00;;;;;;;;;;107822;1250;22652;-79
2023/04/07 06:13:43;;;;;;;62.40;33.40;;;;;;;;;;107567;1252;24184;-76
2023/04/07 06:16:09;;;;;;;72.30;43.00;;;;;;;;;;107545;1250;22652;-78
2023/04/07 06:18:36;;;;;;;70.80;41.80;;;;;;;;;;107549;1252;22539;-80
2023/04/07 06:21:02;;;;;;;76.00;43.80;;;;;;;;;;107582;1250;22988;-79
2023/04/07 06:23:28;;;;;;;71.30;43.30;;;;;;;;;;107510;1250;25348;-79
2023/04/07 06:25:55;;;;;;;68.80;39.80;;;;;;;;;;107616;1250;24329;-76
2023/04/07 06:28:21;;;;;;;65.50;38.10;;;;;;;;;;107550;1250;25220;-79
2023/04/07 06:30:47;;;;;;;66.70;34.90;;;;;;;;;;107526;1250;25371;-77
2023/04/07 06:33:14;;;;;;;68.60;38.80;;;;;;;;;;107651;1250;24217;-77
2023/04/07 06:35:40;;;;;;;68.00;42.30;;;;;;;;;;107716;1249;23402;-79
2023/04/07 06:38:07;;;;;;;89.30;52.20;;;;;;;;;;107638;1250;26354;-79
2023/04/07 06:40:33;;;;;;;65.20;38.60;;;;;;;;;;110049;1249;22242;-78
2023/04/07 06:43:00;;;;;;;60.90;36.10;;;;;;;;;;110858;1249;22742;-78
2023/04/07 06:45:26;;;;;;;76.30;48.20;;;;;;;;;;110495;1250;22718;-78
2023/04/07 06:47:52;;;;;;;65.70;35.50;;;;;;;;;;107749;1250;22988;-79
2023/04/07 06:50:21;;;;;;;63.60;35.60;;;;;;;;;;107562;1250;22528;-79
2023/04/07 06:52:47;;;;;;;117.70;77.50;;;;;;;;;;107669;1250;25636;-79
2023/04/07 06:55:13;;;;;;;100.70;63.30;;;;;;;;;;107898;1250;22519;-77
2023/04/07 06:57:40;;;;;;;84.20;52.10;;;;;;;;;;107863;1251;25298;-80
2023/04/07 07:00:06;;;;;;;78.80;47.30;;;;;;;;;;107742;1250;22530;-77
2023/04/07 07:02:33;;;;;;;69.40;41.30;;;;;;;;;;107564;1250;24198;-77
2023/04/07 07:05:00;;;;;;;60.30;37.00;;;;;;;;;;107626;1253;22636;-79
2023/04/07 07:07:26;;;;;;;100.00;67.90;;;;;;;;;;107597;1253;22527;-79
2023/04/07 07:09:52;;;;;;;104.90;72.80;;;;;;;;;;107808;1250;22584;-79
2023/04/07 07:12:19;;;;;;;75.50;51.30;;;;;;;;;;107607;1253;22526;-77
2023/04/07 07:14:45;;;;;;;71.40;45.20;;;;;;;;;;107940;1252;22531;-77
2023/04/07 07:17:13;;;;;;;65.00;38.90;;;;;;;;;;107566;1250;25494;-80
2023/04/07 07:19:39;;;;;;;63.70;43.30;;;;;;;;;;107646;1252;24242;-77
2023/04/07 07:22:05;;;;;;;64.90;42.20;;;;;;;;;;107558;1250;25497;-78
2023/04/07 07:24:32;;;;;;;78.20;53.50;;;;;;;;;;107530;1249;22720;-79
2023/04/07 07:27:00;;;;;;;95.10;60.20;;;;;;;;;;107581;1250;25504;-79
2023/04/07 07:29:27;;;;;;;52.30;34.50;;;;;;;;;;107560;1249;26043;-79
2023/04/07 07:31:53;;;;;;;45.90;29.80;;;;;;;;;;107530;1250;24248;-77
2023/04/07 07:34:19;;;;;;;33.60;19.70;;;;;;;;;;107547;1250;22700;-77
2023/04/07 07:36:46;;;;;;;53.70;37.40;;;;;;;;;;107536;1252;22518;-79
2023/04/07 07:39:13;;;;;;;45.20;29.40;;;;;;;;;;107773;1250;22529;-79
2023/04/07 07:41:40;;;;;;;69.30;51.30;;;;;;;;;;107552;1250;23692;-77
2023/04/07 07:44:06;;;;;;;45.90;29.50;;;;;;;;;;107537;1250;22656;-77
2023/04/07 07:46:33;;;;;;;73.10;45.10;;;;;;;;;;107735;1250;22585;-77
2023/04/07 07:48:59;;;;;;;85.70;61.70;;;;;;;;;;107728;1252;22518;-79
2023/04/07 07:51:26;;;;;;;99.90;68.00;;;;;;;;;;107692;1251;23130;-77
2023/04/07 07:53:53;;;;;;;52.00;38.20;;;;;;;;;;107826;1250;23065;-77
2023/04/07 07:56:20;;;;;;;49.90;38.50;;;;;;;;;;107696;1252;22517;-79
2023/04/07 07:58:46;;;;;;;91.90;53.40;;;;;;;;;;107746;1252;23115;-77
2023/04/07 08:01:13;;;;;;;65.90;42.60;;;;;;;;;;108516;1250;24224;-79
2023/04/07 08:03:39;;;;;;;54.70;34.60;;;;;;;;;;107640;1248;25547;-77
2023/04/07 08:06:08;;;;;;;39.90;27.80;;;;;;;;;;107688;1250;22628;-77
2023/04/07 08:08:34;;;;;;;40.00;23.90;;;;;;;;;;107776;1250;25391;-77
2023/04/07 08:11:01;;;;;;;45.00;27.00;;;;;;;;;;107579;1250;25374;-77
2023/04/07 08:13:28;;;;;;;29.90;18.70;;;;;;;;;;107619;1248;22622;-77
2023/04/07 08:15:54;;;;;;;28.10;19.10;;;;;;;;;;107833;1253;22754;-77
2023/04/07 08:18:20;;;;;;;39.20;28.00;;;;;;;;;;107727;1252;22591;-77
2023/04/07 08:20:47;;;;;;;48.10;35.00;;;;;;;;;;107648;1253;22531;-79
2023/04/07 08:23:13;;;;;;;57.70;39.60;;;;;;;;;;107652;1253;22529;-79
2023/04/07 08:25:39;;;;;;;30.30;20.70;;;;;;;;;;107634;1250;22522;-79
2023/04/07 08:28:06;;;;;;;35.10;19.20;;;;;;;;;;107576;1249;24191;-79
2023/04/07 08:30:32;;;;;;;31.50;15.20;;;;;;;;;;107614;1251;22522;-77
2023/04/07 08:32:59;;;;;;;33.40;19.10;;;;;;;;;;107627;1252;25326;-79
2023/04/07 08:35:25;;;;;;;30.50;20.80;;;;;;;;;;107706;1252;22601;-77
2023/04/07 08:37:52;;;;;;;37.90;26.70;;;;;;;;;;108239;1248;22363;-79
2023/04/07 08:40:19;;;;;;;81.00;57.30;;;;;;;;;;108534;1253;22555;-78
2023/04/07 08:42:45;;;;;;;40.80;25.20;;;;;;;;;;107707;1251;22540;-79
2023/04/07 08:45:12;;;;;;;34.80;21.90;;;;;;;;;;107634;1250;24243;-79
2023/04/07 08:47:39;;;;;;;46.80;29.60;;;;;;;;;;107695;1248;22543;-79
2023/04/07 08:50:09;;;;;;;36.00;24.80;;;;;;;;;;107710;1252;25340;-80
2023/04/07 08:52:40;;;;;;;51.10;33.40;;;;;;;;;;107713;1251;22522;-79
2023/04/07 08:55:07;;;;;;;44.70;26.50;;;;;;;;;;107548;1252;24928;-79
2023/04/07 08:57:33;;;;;;;44.90;27.50;;;;;;;;;;107576;1251;24238;-79
2023/04/07 09:00:04;;;;;;;60.90;39.20;;;;;;;;;;107592;1251;24229;-79
2023/04/07 09:02:37;;;;;;;47.70;32.00;;;;;;;;;;108084;1250;25604;-77
2023/04/07 09:05:05;;;;;;;44.60;29.20;;;;;;;;;;107566;1250;24251;-79
2023/04/07 09:07:32;;;;;;;71.00;49.30;;;;;;;;;;107711;1253;22641;-78
2023/04/07 09:09:58;;;;;;;57.10;35.50;;;;;;;;;;107615;1251;22684;-77
2023/04/07 09:12:26;;;;;;;71.30;47.60;;;;;;;;;;107587;1251;22522;-77
2023/04/07 09:14:52;;;;;;;53.00;39.30;;;;;;;;;;107636;1249;22558;-79
2023/04/07 09:17:19;;;;;;;35.70;23.40;;;;;;;;;;107676;1248;25390;-77
2023/04/07 09:19:46;;;;;;;48.80;30.10;;;;;;;;;;107590;1250;23019;-79
2023/04/07 09:22:13;;;;;;;57.20;41.80;;;;;;;;;;108103;1253;22554;-79
2023/04/07 09:24:40;;;;;;;45.60;30.40;;;;;;;;;;107616;1253;23145;-78
2023/04/07 09:27:13;;;;;;;39.70;25.10;;;;;;;;;;107793;1250;24275;-80
2023/04/07 09:29:40;;;;;;;37.10;20.30;;;;;;;;;;107601;1247;22535;-78
2023/04/07 09:32:07;;;;;;;32.10;21.50;;;;;;;;;;107665;1249;22990;-80
2023/04/07 09:34:34;;;;;;;43.90;32.90;;;;;;;;;;107485;1250;22518;-80
2023/04/07 09:37:01;;;;;;;49.20;31.70;;;;;;;;;;107581;1251;26679;-78
2023/04/07 09:39:27;;;;;;;44.40;29.90;;;;;;;;;;107437;1252;25348;-80
2023/04/07 09:41:54;;;;;;;45.20;29.80;;;;;;;;;;107592;1254;24219;-79
2023/04/07 09:44:20;;;;;;;49.70;28.40;;;;;;;;;;107519;1253;22527;-79
2023/04/07 09:46:53;;;;;;;38.00;22.80;;;;;;;;;;107572;1252;26494;-78
2023/04/07 09:49:20;;;;;;;60.90;37.20;;;;;;;;;;107515;1252;22562;-79
2023/04/07 09:51:59;;;;;;;45.90;30.30;;;;;;;;;;107716;1253;25265;-79
2023/04/07 09:54:33;;;;;;;39.90;25.60;;;;;;;;;;107551;1253;22469;-78
2023/04/07 09:57:00;;;;;;;45.50;27.20;;;;;;;;;;107664;1251;22745;-79
2023/04/07 09:59:27;;;;;;;70.60;40.20;;;;;;;;;;107739;1249;25378;-78
2023/04/07 10:01:54;;;;;;;45.30;31.10;;;;;;;;;;107599;1250;25392;-80
2023/04/07 10:04:21;;;;;;;48.60;31.20;;;;;;;;;;107637;1253;25496;-79
2023/04/07 10:06:47;;;;;;;45.00;32.00;;;;;;;;;;107486;1250;22515;-79
2023/04/07 10:09:16;;;;;;;39.50;23.10;;;;;;;;;;107537;1248;22664;-79
2023/04/07 10:11:43;;;;;;;;;;;;;;;;;;107551;1253;25301;-77
2023/04/07 10:14:09;;;;;;;41.60;22.30;;;;;;;;;;107635;1253;22544;-77
2023/04/07 10:16:38;;;;;;;39.70;22.10;;;;;;;;;;107503;1250;22548;-77
2023/04/07 10:19:05;;;;;;;;;;;;;;;;;;107447;1252;25255;-77
2023/04/07 10:21:33;;;;;;;43.10;28.00;;;;;;;;;;107433;1252;25348;-77
2023/04/07 10:24:04;;;;;;;38.20;23.10;;;;;;;;;;107637;1252;22569;-79
2023/04/07 10:26:32;;;;;;;37.50;20.30;;;;;;;;;;107505;1251;22565;-77
2023/04/07 10:28:59;;;;;;;42.00;27.20;;;;;;;;;;107460;1250;24194;-79
2023/04/07 10:31:26;;;;;;;37.30;23.40;;;;;;;;;;107621;1250;23747;-77
2023/04/07 10:33:52;;;;;;;39.30;24.20;;;;;;;;;;107711;1248;23259;-78
2023/04/07 10:36:19;;;;;;;46.90;31.70;;;;;;;;;;107487;1249;22524;-79
2023/04/07 10:39:17;;;;;;;40.90;25.20;;;;;;;;;;107489;1253;23295;-79
2023/04/07 10:41:44;;;;;;;42.90;26.80;;;;;;;;;;107596;1252;22561;-80
2023/04/07 10:44:31;;;;;;;44.30;28.40;;;;;;;;;;107480;1248;23389;-79
2023/04/07 10:47:00;;;;;;;46.20;33.60;;;;;;;;;;107495;1250;25339;-78
2023/04/07 10:49:27;;;;;;;36.00;23.30;;;;;;;;;;107472;1248;22764;-79
2023/04/07 10:52:13;;;;;;;54.60;44.10;;;;;;;;;;107530;1251;22543;-79
2023/04/07 10:54:40;;;;;;;106.00;94.60;;;;;;;;;;107520;1251;22524;-79
2023/04/07 10:57:09;;;;;;;65.30;51.60;;;;;;;;;;107486;1251;25379;-78
2023/04/07 10:59:35;;;;;;;42.30;31.70;;;;;;;;;;107595;1251;24202;-79
2023/04/07 11:02:11;;;;;;;43.20;30.70;;;;;;;;;;107626;1250;25400;-79
2023/04/07 11:04:37;;;;;;;37.70;23.00;;;;;;;;;;108831;1252;22356;-77
2023/04/07 11:07:04;;;;;;;36.40;22.50;;;;;;;;;;108325;1251;23225;-77
2023/04/07 11:09:30;;;;;;;30.30;18.00;;;;;;;;;;107497;1248;25255;-77
2023/04/07 11:11:56;;;;;;;32.80;22.70;;;;;;;;;;107549;1252;22635;-78
2023/04/07 11:14:26;;;;;;;32.40;20.80;;;;;;;;;;107584;1249;23662;-78
2023/04/07 11:16:52;;;;;;;31.20;18.90;;;;;;;;;;107595;1252;22525;-77
2023/04/07 11:19:19;;;;;;;46.80;35.20;;;;;;;;;;107596;1248;25531;-78
2023/04/07 11:21:45;;;;;;;36.70;26.70;;;;;;;;;;107488;1251;24190;-77
2023/04/07 11:24:33;;;;;;;56.90;44.80;;;;;;;;;;107564;1249;25349;-79
2023/04/07 11:27:00;;;;;;;46.50;31.20;;;;;;;;;;107431;1251;24940;-79
2023/04/07 11:29:27;;;;;;;44.20;33.40;;;;;;;;;;107458;1250;22664;-77
2023/04/07 11:31:53;;;;;;;122.80;83.20;;;;;;;;;;107487;1250;23063;-79
2023/04/07 11:34:20;;;;;;;116.50;76.90;;;;;;;;;;107497;1249;22627;-78
2023/04/07 11:36:46;;;;;;;63.10;46.80;;;;;;;;;;107522;1251;23097;-79
2023/04/07 11:39:20;;;;;;;45.80;29.40;;;;;;;;;;107486;1251;22536;-77
2023/04/07 11:41:47;;;;;;;45.40;26.40;;;;;;;;;;107490;1253;22528;-79
2023/04/07 11:44:13;;;;;;;41.20;25.30;;;;;;;;;;107479;1250;23278;-79
2023/04/07 11:46:59;;;;;;;30.20;17.40;;;;;;;;;;107669;1248;23788;-77
2023/04/07 11:49:28;;;;;;;30.60;16.70;;;;;;;;;;107525;1254;25421;-77
2023/04/07 11:52:05;;;;;;;28.00;15.20;;;;;;;;;;107524;1253;25455;-79
2023/04/07 11:54:40;;;;;;;34.20;20.40;;;;;;;;;;107768;1251;22521;-77
2023/04/07 11:57:09;;;;;;;37.60;21.70;;;;;;;;;;107605;1253;25213;-79
2023/04/07 11:59:35;;;;;;;64.30;37.90;;;;;;;;;;107628;1251;23594;-79
2023/04/07 12:02:02;;;;;;;36.10;23.50;;;;;;;;;;107415;1251;22529;-79
2023/04/07 12:04:30;;;;;;;38.90;22.20;;;;;;;;;;107701;1251;24410;-78
2023/04/07 12:07:05;;;;;;;32.50;17.10;;;;;;;;;;107719;1251;23599;-79
2023/04/07 12:09:34;;;;;;;30.40;19.10;;;;;;;;;;107667;1251;23148;-77
2023/04/07 12:12:01;;;;;;;41.10;24.20;;;;;;;;;;107687;1248;24234;-80
2023/04/07 12:14:28;;;;;;;49.10;29.60;;;;;;;;;;108369;1248;23780;-79
2023/04/07 12:16:55;;;;;;;36.10;22.30;;;;;;;;;;107686;1250;25398;-79
2023/04/07 12:19:22;;;;;;;46.70;27.80;;;;;;;;;;107568;1251;25322;-80
2023/04/07 12:21:49;;;;;;;65.50;34.00;;;;;;;;;;107741;1250;25387;-78
2023/04/07 12:24:16;;;;;;;41.50;22.70;;;;;;;;;;107576;1251;24366;-79
2023/04/07 12:26:42;;;;;;;36.10;19.40;;;;;;;;;;107572;1251;25500;-80
2023/04/07 12:29:09;;;;;;;21.70;13.60;;;;;;;;;;107628;1250;22540;-77
2023/04/07 12:31:35;;;;;;;28.80;17.30;;;;;;;;;;107542;1247;24428;-80
2023/04/07 12:34:01;;;;;;;36.70;20.30;;;;;;;;;;107546;1248;25459;-79
2023/04/07 12:36:28;;;;;;;61.40;31.60;;;;;;;;;;107509;1251;22655;-77
2023/04/07 12:38:55;;;;;;;58.10;33.50;;;;;;;;;;107476;1251;24901;-78
2023/04/07 12:41:21;;;;;;;64.70;35.40;;;;;;;;;;107484;1251;22759;-77
2023/04/07 12:43:48;;;;;;;65.20;36.10;;;;;;;;;;107450;1251;22536;-79
2023/04/07 12:46:14;;;;;;;68.20;36.30;;;;;;;;;;107483;1250;25304;-80
2023/04/07 12:48:41;;;;;;;48.20;26.70;;;;;;;;;;107460;1251;22520;-77
2023/04/07 12:51:07;;;;;;;36.90;21.60;;;;;;;;;;107455;1251;22599;-78
2023/04/07 12:53:34;;;;;;;57.80;33.20;;;;;;;;;;107498;1252;22531;-79
2023/04/07 12:56:00;;;;;;;52.40;28.20;;;;;;;;;;107564;1251;25399;-80
2023/04/07 12:58:27;;;;;;;45.90;25.80;;;;;;;;;;107490;1251;22611;-80
2023/04/07 13:00:53;;;;;;;48.70;28.40;;;;;;;;;;107493;1251;22545;-79
2023/04/07 13:03:20;;;;;;;73.70;46.60;;;;;;;;;;107527;1250;22653;-78
2023/04/07 13:05:47;;;;;;;41.20;23.70;;;;;;;;;;107587;1247;25325;-79
2023/04/07 13:08:13;;;;;;;49.60;31.10;;;;;;;;;;107642;1251;25363;-79
2023/04/07 13:10:40;;;;;;;55.60;30.00;;;;;;;;;;107664;1247;22553;-79
2023/04/07 13:13:06;;;;;;;63.50;34.80;;;;;;;;;;107600;1247;22528;-79
2023/04/07 13:15:33;;;;;;;44.70;24.00;;;;;;;;;;107756;1250;25333;-77
2023/04/07 13:17:59;;;;;;;37.80;21.40;;;;;;;;;;107481;1254;22532;-77
2023/04/07 13:20:26;;;;;;;79.00;42.50;;;;;;;;;;107508;1249;22541;-78
2023/04/07 13:22:53;;;;;;;45.90;34.40;;;;;;;;;;107524;1252;26338;-79
2023/04/07 13:25:20;;;;;;;51.10;28.60;;;;;;;;;;107551;1250;22968;-78
2023/04/07 13:27:46;;;;;;;116.50;79.80;;;;;;;;;;107500;1251;25204;-77
2023/04/07 13:30:13;;;;;;;128.50;87.90;;;;;;;;;;107440;1250;22521;-79
2023/04/07 13:32:40;;;;;;;75.50;60.10;;;;;;;;;;107465;1250;22489;-79
2023/04/07 13:35:07;;;;;;;72.50;50.30;;;;;;;;;;107487;1249;25458;-79
2023/04/07 13:37:33;;;;;;;89.70;57.30;;;;;;;;;;107623;1251;26410;-77
2023/04/07 13:40:00;;;;;;;88.10;58.30;;;;;;;;;;107515;1251;23319;-79
2023/04/07 13:42:26;;;;;;;40.50;30.60;;;;;;;;;;107524;1253;22484;-79
2023/04/07 13:44:53;;;;;;;33.80;22.30;;;;;;;;;;107477;1251;25290;-77
2023/04/07 13:47:20;;;;;;;37.00;23.50;;;;;;;;;;107621;1251;25265;-79
2023/04/07 13:49:47;;;;;;;48.00;31.80;;;;;;;;;;107506;1250;24350;-79
2023/04/07 13:52:13;;;;;;;46.20;29.60;;;;;;;;;;107453;1250;25375;-77
2023/04/07 13:54:40;;;;;;;40.80;23.50;;;;;;;;;;107481;1250;22587;-79
2023/04/07 13:57:07;;;;;;;44.80;30.80;;;;;;;;;;107507;1252;25353;-77
2023/04/07 13:59:33;;;;;;;50.40;34.30;;;;;;;;;;107531;1248;157982;-77
2023/04/07 14:02:00;;;;;;;65.80;50.00;;;;;;;;;;107569;1250;25209;-78
2023/04/07 14:04:26;;;;;;;44.60;29.70;;;;;;;;;;107457;1251;25440;-79